createdAt,value
2019-01-09T00:02:16.301Z,2.80
2019-01-09T00:04:45.941Z,2.80
2019-01-09T00:07:15.539Z,2.80
2019-01-09T00:09:46.122Z,2.80
2019-01-09T00:12:15.796Z,2.90
2019-01-09T00:14:46.374Z,2.90
2019-01-09T00:17:15.989Z,2.80
2019-01-09T00:19:45.661Z,2.70
2019-01-09T00:22:15.480Z,2.70
2019-01-09T00:24:45.078Z,2.70
2019-01-09T00:27:14.818Z,2.70
2019-01-09T00:29:44.494Z,2.80
2019-01-09T00:32:14.083Z,2.80
2019-01-09T00:34:43.693Z,2.80
2019-01-09T00:37:13.344Z,2.90
2019-01-09T00:39:42.953Z,2.90
2019-01-09T00:42:12.550Z,2.90
2019-01-09T00:44:42.150Z,2.90
2019-01-09T00:47:11.750Z,2.90
2019-01-09T00:49:41.410Z,2.90
2019-01-09T00:52:11.077Z,2.80
2019-01-09T00:54:40.946Z,2.70
2019-01-09T00:57:10.615Z,2.70
2019-01-09T00:59:40.373Z,2.70
2019-01-09T01:02:46.898Z,2.70
2019-01-09T01:06:05.785Z,2.80
2019-01-09T01:09:41.085Z,2.80
2019-01-09T01:12:46.721Z,2.80
2019-01-09T01:16:01.447Z,2.80
2019-01-09T01:18:45.190Z,2.70
2019-01-09T01:21:26.528Z,2.80
2019-01-09T01:24:33.241Z,2.80
2019-01-09T01:27:30.624Z,2.80
2019-01-09T01:30:26.394Z,2.70
2019-01-09T01:33:05.733Z,2.70
2019-01-09T01:36:06.185Z,2.70
2019-01-09T01:39:19.442Z,2.80
2019-01-09T01:42:29.473Z,2.80
2019-01-09T01:45:26.032Z,2.80
2019-01-09T01:48:24.077Z,2.90
2019-01-09T01:51:21.833Z,2.90
2019-01-09T01:54:06.076Z,2.80
2019-01-09T01:57:12.767Z,2.80
2019-01-09T01:59:51.373Z,2.80
2019-01-09T02:02:47.570Z,2.80
2019-01-09T02:06:03.886Z,2.80
2019-01-09T02:09:15.493Z,2.80
2019-01-09T02:12:08.885Z,2.80
2019-01-09T02:15:03.885Z,2.90
2019-01-09T02:18:14.472Z,2.90
2019-01-09T02:21:24.265Z,2.90
2019-01-09T02:24:33.222Z,3.00
2019-01-09T02:27:10.908Z,2.90
2019-01-09T02:30:22.625Z,2.90
2019-01-09T02:32:52.224Z,2.90
2019-01-09T02:35:21.826Z,3.00
2019-01-09T02:37:51.445Z,3.00
2019-01-09T02:40:21.039Z,3.00
2019-01-09T02:42:50.701Z,3.00
2019-01-09T02:45:20.289Z,2.90
2019-01-09T02:47:49.921Z,2.90
2019-01-09T02:50:19.581Z,2.90
2019-01-09T02:52:49.186Z,2.90
2019-01-09T02:55:18.781Z,2.90
2019-01-09T02:57:56.622Z,2.80
2019-01-09T03:00:19.773Z,2.80
2019-01-09T03:02:49.355Z,2.80
2019-01-09T03:05:19.047Z,2.70
2019-01-09T03:07:48.656Z,2.70
2019-01-09T03:10:18.270Z,2.70
2019-01-09T03:12:47.871Z,2.60
2019-01-09T03:15:17.545Z,2.60
2019-01-09T03:17:47.405Z,2.60
2019-01-09T03:20:17.022Z,2.60
2019-01-09T03:22:46.621Z,2.60
2019-01-09T03:25:16.293Z,2.60
2019-01-09T03:27:45.880Z,2.60
2019-01-09T03:30:15.575Z,2.50
2019-01-09T03:32:45.320Z,2.50
2019-01-09T03:35:14.949Z,2.50
2019-01-09T03:37:44.533Z,2.50
2019-01-09T03:40:14.254Z,2.50
2019-01-09T03:42:43.976Z,2.50
2019-01-09T03:45:13.757Z,2.50
2019-01-09T03:47:43.355Z,2.40
2019-01-09T03:50:12.943Z,2.40
2019-01-09T03:52:42.630Z,2.50
2019-01-09T03:55:12.325Z,2.40
2019-01-09T03:57:42.174Z,2.40
2019-01-09T04:00:11.790Z,2.40
2019-01-09T04:02:41.393Z,2.40
2019-01-09T04:05:10.992Z,2.50
2019-01-09T04:07:40.701Z,2.50
2019-01-09T04:10:10.400Z,2.50
2019-01-09T04:12:40.005Z,2.60
2019-01-09T04:15:09.885Z,2.60
2019-01-09T04:17:39.549Z,2.70
2019-01-09T04:20:09.189Z,2.70
2019-01-09T04:22:38.870Z,2.70
2019-01-09T04:25:08.814Z,2.80
2019-01-09T04:27:38.500Z,2.80
2019-01-09T04:30:08.460Z,2.80
2019-01-09T04:32:38.132Z,2.80
2019-01-09T04:35:07.923Z,2.80
2019-01-09T04:37:37.767Z,2.80
2019-01-09T04:40:07.510Z,2.90
2019-01-09T04:42:37.161Z,2.90
2019-01-09T04:45:07.141Z,2.90
2019-01-09T04:47:36.919Z,2.90
2019-01-09T04:50:06.656Z,2.90
2019-01-09T04:52:36.330Z,2.90
2019-01-09T04:55:06.161Z,2.90
2019-01-09T04:57:35.838Z,2.90
2019-01-09T05:00:06.310Z,2.90
2019-01-09T05:02:35.974Z,2.90
2019-01-09T05:05:05.834Z,2.90
2019-01-09T05:07:35.581Z,2.90
2019-01-09T05:10:05.442Z,2.90
2019-01-09T05:12:35.125Z,2.90
2019-01-09T05:15:05.291Z,2.90
2019-01-09T05:17:34.957Z,2.90
2019-01-09T05:20:05.399Z,2.90
2019-01-09T05:22:35.104Z,2.90
2019-01-09T05:25:05.185Z,2.90
2019-01-09T05:27:34.893Z,2.90
2019-01-09T05:30:05.459Z,2.90
2019-01-09T05:32:35.164Z,2.90
2019-01-09T05:35:05.117Z,2.90
2019-01-09T05:37:34.840Z,2.90
2019-01-09T05:40:05.191Z,2.80
2019-01-09T05:42:35.147Z,2.80
2019-01-09T05:45:05.496Z,2.80
2019-01-09T05:47:35.250Z,2.80
2019-01-09T05:50:05.974Z,2.80
2019-01-09T05:52:35.576Z,2.80
2019-01-09T05:55:05.387Z,2.80
2019-01-09T05:57:34.979Z,2.80
2019-01-09T06:00:05.983Z,2.80
2019-01-09T06:02:35.673Z,2.80
2019-01-09T06:05:05.523Z,2.80
2019-01-09T06:07:35.164Z,2.80
2019-01-09T06:10:05.560Z,2.80
2019-01-09T06:12:35.217Z,2.80
2019-01-09T06:15:05.386Z,2.80
2019-01-09T06:17:35.041Z,2.80
2019-01-09T06:20:06.519Z,2.80
2019-01-09T06:22:36.214Z,2.80
2019-01-09T06:25:06.612Z,2.80
2019-01-09T06:27:36.260Z,2.80
2019-01-09T06:30:06.153Z,2.80
2019-01-09T06:32:35.849Z,2.80
2019-01-09T06:35:05.580Z,2.80
2019-01-09T06:37:35.372Z,2.80
2019-01-09T06:40:05.422Z,2.80
2019-01-09T06:42:35.092Z,2.80
2019-01-09T06:45:05.321Z,2.80
2019-01-09T06:47:35.954Z,2.80
2019-01-09T06:50:10.087Z,2.80
2019-01-09T06:52:40.695Z,2.80
2019-01-09T06:55:10.485Z,2.80
2019-01-09T06:57:40.133Z,2.80
2019-01-09T07:00:10.357Z,2.80
2019-01-09T07:02:40.456Z,2.80
2019-01-09T07:05:10.352Z,2.80
2019-01-09T07:07:39.995Z,2.80
2019-01-09T07:10:09.759Z,2.70
2019-01-09T07:12:39.510Z,2.70
2019-01-09T07:15:11.847Z,2.70
2019-01-09T07:17:40.581Z,2.70
2019-01-09T07:20:10.340Z,2.70
2019-01-09T07:22:40.945Z,2.70
2019-01-09T07:25:10.621Z,2.70
2019-01-09T07:27:40.530Z,2.70
2019-01-09T07:30:10.704Z,2.70
2019-01-09T07:32:40.456Z,2.70
2019-01-09T07:35:10.093Z,2.70
2019-01-09T07:37:45.082Z,2.70
2019-01-09T07:40:11.165Z,2.70
2019-01-09T07:42:40.946Z,2.80
2019-01-09T07:45:10.660Z,2.80
2019-01-09T07:47:41.432Z,2.80
2019-01-09T07:50:11.205Z,2.80
2019-01-09T07:52:40.835Z,2.80
2019-01-09T07:55:10.522Z,2.80
2019-01-09T07:57:40.136Z,2.80
2019-01-09T08:00:11.422Z,2.80
2019-01-09T08:02:41.181Z,2.80
2019-01-09T08:05:11.796Z,2.80
2019-01-09T08:07:42.465Z,2.80
2019-01-09T08:10:12.233Z,2.80
2019-01-09T08:12:41.965Z,2.80
2019-01-09T08:15:11.570Z,2.80
2019-01-09T08:17:42.217Z,2.80
2019-01-09T08:20:11.942Z,2.80
2019-01-09T08:22:41.647Z,2.80
2019-01-09T08:25:12.279Z,2.80
2019-01-09T08:27:41.987Z,2.80
2019-01-09T08:30:11.893Z,2.70
2019-01-09T08:32:41.501Z,2.70
2019-01-09T08:35:12.155Z,2.70
2019-01-09T08:37:41.884Z,2.70
2019-01-09T08:40:11.624Z,2.70
2019-01-09T08:42:41.343Z,2.70
2019-01-09T08:45:11.064Z,2.70
2019-01-09T08:47:40.743Z,2.70
2019-01-09T08:50:10.651Z,2.70
2019-01-09T08:52:40.468Z,2.70
2019-01-09T08:55:10.254Z,2.70
2019-01-09T08:57:39.921Z,2.60
2019-01-09T09:00:11.248Z,2.60
2019-01-09T09:02:41.856Z,2.60
2019-01-09T09:05:11.797Z,2.70
2019-01-09T09:07:42.309Z,2.70
2019-01-09T09:10:13.040Z,2.70
2019-01-09T09:12:42.682Z,2.70
2019-01-09T09:15:13.691Z,2.70
2019-01-09T09:17:43.413Z,2.70
2019-01-09T09:20:13.505Z,2.70
2019-01-09T09:22:43.174Z,2.70
2019-01-09T09:25:13.897Z,2.70
2019-01-09T09:27:43.545Z,2.80
2019-01-09T09:30:14.220Z,2.80
2019-01-09T09:32:43.855Z,2.80
2019-01-09T09:35:13.709Z,2.80
2019-01-09T09:37:43.367Z,2.80
2019-01-09T09:40:15.626Z,2.80
2019-01-09T09:42:45.249Z,2.80
2019-01-09T09:45:15.112Z,2.80
2019-01-09T09:47:44.772Z,2.80
2019-01-09T09:50:15.288Z,2.80
2019-01-09T09:52:44.930Z,2.80
2019-01-09T09:55:14.787Z,2.80
2019-01-09T09:57:45.464Z,2.80
2019-01-09T10:00:18.760Z,2.80
2019-01-09T10:02:48.372Z,2.80
2019-01-09T10:05:18.045Z,2.80
2019-01-09T10:07:47.682Z,2.80
2019-01-09T10:10:17.531Z,2.80
2019-01-09T10:12:47.209Z,2.90
2019-01-09T10:15:17.444Z,2.90
2019-01-09T10:17:47.145Z,2.90
2019-01-09T10:20:17.019Z,3.00
2019-01-09T10:22:47.510Z,3.00
2019-01-09T10:25:18.091Z,3.00
2019-01-09T10:27:47.716Z,3.00
2019-01-09T10:30:18.564Z,3.00
2019-01-09T10:32:48.196Z,3.00
2019-01-09T10:35:18.179Z,3.00
2019-01-09T10:37:48.142Z,2.90
2019-01-09T10:40:19.081Z,2.90
2019-01-09T10:42:48.775Z,2.90
2019-01-09T10:45:20.260Z,2.90
2019-01-09T10:47:50.053Z,2.90
2019-01-09T10:50:19.858Z,2.90
2019-01-09T10:52:49.541Z,2.90
2019-01-09T10:55:19.381Z,2.90
2019-01-09T10:57:49.138Z,2.90
2019-01-09T11:00:21.261Z,2.90
2019-01-09T11:02:51.092Z,2.90
2019-01-09T11:05:20.820Z,2.90
2019-01-09T11:07:50.449Z,2.90
2019-01-09T11:10:20.635Z,2.90
2019-01-09T11:12:50.370Z,2.90
2019-01-09T11:15:19.982Z,2.90
2019-01-09T11:17:49.663Z,2.90
2019-01-09T11:20:20.715Z,2.90
2019-01-09T11:22:50.353Z,2.90
2019-01-09T11:25:25.679Z,2.90
2019-01-09T11:27:55.381Z,2.90
2019-01-09T11:30:25.056Z,2.90
2019-01-09T11:32:54.722Z,2.90
2019-01-09T11:35:25.409Z,2.90
2019-01-09T11:37:55.210Z,2.80
2019-01-09T11:40:24.954Z,2.80
2019-01-09T11:42:54.702Z,2.80
2019-01-09T11:45:25.549Z,2.80
2019-01-09T11:47:55.205Z,2.80
2019-01-09T11:50:24.845Z,2.80
2019-01-09T11:52:54.530Z,2.80
2019-01-09T11:55:24.165Z,2.80
2019-01-09T11:57:53.857Z,2.80
2019-01-09T12:00:25.829Z,2.90
2019-01-09T12:02:55.781Z,2.90
2019-01-09T12:05:25.486Z,2.90
2019-01-09T12:07:55.337Z,2.90
2019-01-09T12:10:30.343Z,2.90
2019-01-09T12:12:57.564Z,2.90
2019-01-09T12:15:27.253Z,2.80
2019-01-09T12:17:56.917Z,2.80
2019-01-09T12:20:26.581Z,2.80
2019-01-09T12:22:56.528Z,2.80
2019-01-09T12:25:26.204Z,2.80
2019-01-09T12:27:55.816Z,2.80
2019-01-09T12:30:29.689Z,2.80
2019-01-09T12:32:59.694Z,2.90
2019-01-09T12:35:29.406Z,2.90
2019-01-09T12:37:59.049Z,2.90
2019-01-09T12:40:28.905Z,2.90
2019-01-09T12:42:58.576Z,2.90
2019-01-09T12:45:28.270Z,2.90
2019-01-09T12:47:57.900Z,2.90
2019-01-09T12:50:27.681Z,2.90
2019-01-09T12:52:57.338Z,2.90
2019-01-09T12:55:27.208Z,2.90
2019-01-09T12:57:57.149Z,2.90
2019-01-09T13:00:28.537Z,2.90
2019-01-09T13:02:58.192Z,2.90
2019-01-09T13:05:27.871Z,2.80
2019-01-09T13:07:57.477Z,2.80
2019-01-09T13:10:27.195Z,2.90
2019-01-09T13:12:56.838Z,2.90
2019-01-09T13:15:26.525Z,2.80
2019-01-09T13:17:56.157Z,2.80
2019-01-09T13:20:25.848Z,2.90
2019-01-09T13:22:55.866Z,2.80
2019-01-09T13:25:25.461Z,2.90
2019-01-09T13:27:55.097Z,2.90
2019-01-09T13:30:24.867Z,2.90
2019-01-09T13:32:54.664Z,2.80
2019-01-09T13:35:24.324Z,2.90
2019-01-09T13:37:53.940Z,2.90
2019-01-09T13:40:23.737Z,2.80
2019-01-09T13:42:53.434Z,2.80
2019-01-09T13:45:23.662Z,2.80
2019-01-09T13:47:53.444Z,2.80
2019-01-09T13:50:23.085Z,2.80
2019-01-09T13:52:52.968Z,2.80
2019-01-09T13:55:23.625Z,2.80
2019-01-09T13:57:53.340Z,2.80
2019-01-09T14:00:23.827Z,2.80
2019-01-09T14:02:53.525Z,2.70
2019-01-09T14:05:23.341Z,2.70
2019-01-09T14:07:53.100Z,2.70
2019-01-09T14:10:25.815Z,2.70
2019-01-09T14:12:55.569Z,2.70
2019-01-09T14:15:25.417Z,2.70
2019-01-09T14:17:55.203Z,2.70
2019-01-09T14:20:24.840Z,2.60
2019-01-09T14:22:54.526Z,2.60
2019-01-09T14:25:24.219Z,2.60
2019-01-09T14:27:53.876Z,2.60
2019-01-09T14:30:28.637Z,2.60
2019-01-09T14:32:58.376Z,2.60
2019-01-09T14:35:29.059Z,2.60
2019-01-09T14:37:59.679Z,2.60
2019-01-09T14:40:29.360Z,2.60
2019-01-09T14:42:59.178Z,2.60
2019-01-09T14:45:28.778Z,2.60
2019-01-09T14:47:58.428Z,2.60
2019-01-09T14:50:28.148Z,2.60
2019-01-09T14:52:57.829Z,2.50
2019-01-09T14:55:27.444Z,2.50
2019-01-09T14:57:57.212Z,2.50
2019-01-09T15:00:28.350Z,2.50
2019-01-09T15:02:57.982Z,2.50
2019-01-09T15:05:27.832Z,2.50
2019-01-09T15:07:57.683Z,2.50
2019-01-09T15:10:31.369Z,2.50
2019-01-09T15:13:00.765Z,2.50
2019-01-09T15:15:30.652Z,2.50
2019-01-09T15:18:00.428Z,2.50
2019-01-09T15:20:30.109Z,2.50
2019-01-09T15:22:59.869Z,2.50
2019-01-09T15:25:29.670Z,2.50
2019-01-09T15:27:59.357Z,2.50
2019-01-09T15:30:30.521Z,2.50
2019-01-09T15:33:00.218Z,2.50
2019-01-09T15:35:29.878Z,2.40
2019-01-09T15:37:59.565Z,2.40
2019-01-09T15:40:30.530Z,2.40
2019-01-09T15:43:00.555Z,2.40
2019-01-09T15:45:31.416Z,2.40
2019-01-09T15:48:01.161Z,2.50
2019-01-09T15:50:30.812Z,2.40
2019-01-09T15:53:00.481Z,2.40
2019-01-09T15:55:30.195Z,2.40
2019-01-09T15:57:59.821Z,2.40
2019-01-09T16:00:44.280Z,2.40
2019-01-09T16:03:14.184Z,2.40
2019-01-09T16:05:45.725Z,2.40
2019-01-09T16:08:15.595Z,2.40
2019-01-09T16:10:45.371Z,2.40
2019-01-09T16:13:15.061Z,2.30
2019-01-09T16:15:44.714Z,2.30
2019-01-09T16:18:14.477Z,2.30
2019-01-09T16:20:44.089Z,2.40
2019-01-09T16:23:13.800Z,2.30
2019-01-09T16:25:43.493Z,2.30
2019-01-09T16:28:13.143Z,2.30
2019-01-09T16:31:23.620Z,2.30
2019-01-09T16:33:54.414Z,2.30
2019-01-09T16:36:24.762Z,2.30
2019-01-09T16:38:54.428Z,2.30
2019-01-09T16:41:24.358Z,2.30
2019-01-09T16:43:53.983Z,2.20
2019-01-09T16:46:23.666Z,2.20
2019-01-09T16:48:53.317Z,2.20
2019-01-09T16:51:23.097Z,2.20
2019-01-09T16:53:52.776Z,2.20
2019-01-09T16:56:22.459Z,2.20
2019-01-09T16:58:52.262Z,2.20
2019-01-09T17:01:22.003Z,2.20
2019-01-09T17:03:51.690Z,2.20
2019-01-09T17:06:21.769Z,2.20
2019-01-09T17:08:51.471Z,2.20
2019-01-09T17:11:21.149Z,2.20
2019-01-09T17:13:51.580Z,2.10
2019-01-09T17:16:21.233Z,2.10
2019-01-09T17:18:50.953Z,2.10
2019-01-09T17:21:20.622Z,2.10
2019-01-09T17:23:50.268Z,2.10
2019-01-09T17:26:20.057Z,2.00
2019-01-09T17:28:49.786Z,2.00
2019-01-09T17:31:19.520Z,2.00
2019-01-09T17:33:49.513Z,2.00
2019-01-09T17:36:19.222Z,2.00
2019-01-09T17:38:49.001Z,2.00
2019-01-09T17:41:18.693Z,2.00
2019-01-09T17:43:48.361Z,2.00
2019-01-09T17:46:18.061Z,2.00
2019-01-09T17:48:48.739Z,1.90
2019-01-09T17:51:18.410Z,1.90
2019-01-09T17:53:48.008Z,1.90
2019-01-09T17:56:18.034Z,1.90
2019-01-09T17:58:48.689Z,1.90
2019-01-09T18:01:18.280Z,1.80
2019-01-09T18:03:48.090Z,1.80
2019-01-09T18:06:17.852Z,1.80
2019-01-09T18:08:48.600Z,1.70
2019-01-09T18:11:18.205Z,1.70
2019-01-09T18:13:48.107Z,1.70
2019-01-09T18:16:17.740Z,1.70
2019-01-09T18:18:48.868Z,1.70
2019-01-09T18:21:18.484Z,1.60
2019-01-09T18:23:48.112Z,1.60
2019-01-09T18:26:17.875Z,1.60
2019-01-09T18:28:47.551Z,1.50
2019-01-09T18:31:47.216Z,1.50
2019-01-09T18:34:30.246Z,1.50
2019-01-09T18:37:48.018Z,1.50
2019-01-09T18:40:44.400Z,1.50
2019-01-09T18:43:32.940Z,1.40
2019-01-09T18:46:52.250Z,1.40
2019-01-09T18:49:50.004Z,1.40
2019-01-09T18:52:38.792Z,1.40
2019-01-09T18:55:08.643Z,1.40
2019-01-09T18:57:38.297Z,1.30
2019-01-09T19:00:13.057Z,1.30
2019-01-09T19:02:42.771Z,1.30
2019-01-09T19:05:12.596Z,1.30
2019-01-09T19:07:42.313Z,1.30
2019-01-09T19:10:23.625Z,1.30
2019-01-09T19:12:53.325Z,1.30
2019-01-09T19:15:23.064Z,1.30
2019-01-09T19:17:53.019Z,1.30
2019-01-09T19:20:23.166Z,1.30
2019-01-09T19:22:53.217Z,1.30
2019-01-09T19:25:22.937Z,1.30
2019-01-09T19:27:52.621Z,1.20
2019-01-09T19:30:25.189Z,1.20
2019-01-09T19:32:54.905Z,1.20
2019-01-09T19:35:24.617Z,1.20
2019-01-09T19:37:54.410Z,1.20
2019-01-09T19:40:24.855Z,1.20
2019-01-09T19:42:54.504Z,1.20
2019-01-09T19:45:24.187Z,1.10
2019-01-09T19:47:53.956Z,1.10
2019-01-09T19:50:24.622Z,1.10
2019-01-09T19:52:55.526Z,1.10
2019-01-09T19:55:25.501Z,1.10
2019-01-09T19:57:55.224Z,1.10
2019-01-09T20:00:25.722Z,1.10
2019-01-09T20:02:55.503Z,1.10
2019-01-09T20:05:25.321Z,1.10
2019-01-09T20:07:55.135Z,1.10
2019-01-09T20:10:27.009Z,1.00
2019-01-09T20:12:56.934Z,1.00
2019-01-09T20:15:26.950Z,1.00
2019-01-09T20:17:56.814Z,1.00
2019-01-09T20:20:26.750Z,1.00
2019-01-09T20:22:57.114Z,1.00
2019-01-09T20:25:26.845Z,0.90
2019-01-09T20:27:56.692Z,0.90
2019-01-09T20:30:28.574Z,0.90
2019-01-09T20:32:58.361Z,0.90
2019-01-09T20:35:28.465Z,0.90
2019-01-09T20:37:58.328Z,0.90
2019-01-09T20:40:28.703Z,0.90
2019-01-09T20:42:58.427Z,0.90
2019-01-09T20:45:28.282Z,0.90
2019-01-09T20:47:58.125Z,0.90
2019-01-09T20:50:29.945Z,0.90
2019-01-09T20:52:59.628Z,0.90
2019-01-09T20:55:29.407Z,0.90
2019-01-09T20:57:59.458Z,0.90
2019-01-09T21:00:30.354Z,0.90
2019-01-09T21:03:06.083Z,0.90
2019-01-09T21:05:38.671Z,0.90
2019-01-09T21:08:08.593Z,0.90
2019-01-09T21:10:38.426Z,0.90
2019-01-09T21:13:08.302Z,0.90
2019-01-09T21:15:38.061Z,0.90
2019-01-09T21:18:08.241Z,0.90
2019-01-09T21:20:38.116Z,0.90
2019-01-09T21:23:08.877Z,0.90
2019-01-09T21:25:38.825Z,0.90
2019-01-09T21:28:08.593Z,0.90
2019-01-09T21:30:38.256Z,0.90
2019-01-09T21:33:08.010Z,0.90
2019-01-09T21:35:37.668Z,0.80
2019-01-09T21:38:07.433Z,0.90
2019-01-09T21:40:37.460Z,0.80
2019-01-09T21:43:07.137Z,0.80
2019-01-09T21:45:36.961Z,0.80
2019-01-09T21:48:06.723Z,0.80
2019-01-09T21:50:36.417Z,0.80
2019-01-09T21:53:06.312Z,0.80
2019-01-09T21:55:35.972Z,0.80
2019-01-09T21:58:05.733Z,0.80
2019-01-09T22:00:35.513Z,0.70
2019-01-09T22:03:05.164Z,0.70
2019-01-09T22:05:35.030Z,0.70
2019-01-09T22:08:05.193Z,0.70
2019-01-09T22:10:36.316Z,0.70
2019-01-09T22:13:07.028Z,0.70
2019-01-09T22:15:36.881Z,0.70
2019-01-09T22:18:06.663Z,0.70
2019-01-09T22:20:36.349Z,0.70
2019-01-09T22:23:06.315Z,0.60
2019-01-09T22:25:36.390Z,0.60
2019-01-09T22:28:06.163Z,0.70
2019-01-09T22:30:36.129Z,0.70
2019-01-09T22:33:06.020Z,0.70
2019-01-09T22:35:41.417Z,0.70
2019-01-09T22:38:07.877Z,0.70
2019-01-09T22:40:37.833Z,0.70
2019-01-09T22:43:07.681Z,0.70
2019-01-09T22:45:37.552Z,0.70
2019-01-09T22:48:07.363Z,0.70
2019-01-09T22:50:37.178Z,0.70
2019-01-09T22:53:06.820Z,0.70
2019-01-09T22:55:36.471Z,0.70
2019-01-09T22:58:06.153Z,0.70
2019-01-09T23:01:18.222Z,0.70
2019-01-09T23:03:48.409Z,0.70
2019-01-09T23:06:18.205Z,0.70
2019-01-09T23:08:47.896Z,0.70
2019-01-09T23:11:17.589Z,0.70
2019-01-09T23:13:47.375Z,0.70
2019-01-09T23:16:17.228Z,0.70
2019-01-09T23:18:47.884Z,0.60
2019-01-09T23:21:17.813Z,0.70
2019-01-09T23:23:47.605Z,0.60
2019-01-09T23:26:17.561Z,0.60
2019-01-09T23:28:47.238Z,0.60
2019-01-09T23:31:17.053Z,0.60
2019-01-09T23:33:46.835Z,0.60
2019-01-09T23:36:16.453Z,0.60
2019-01-09T23:38:46.236Z,0.60
2019-01-09T23:41:15.860Z,0.60
2019-01-09T23:43:45.612Z,0.60
2019-01-09T23:46:15.372Z,0.60
2019-01-09T23:48:46.041Z,0.60
2019-01-09T23:51:15.733Z,0.60
2019-01-09T23:53:45.364Z,0.60
2019-01-09T23:56:15.057Z,0.60
2019-01-09T23:58:44.684Z,0.60
